TimeEST,TemperatureF,Dew PointF,Humidity,Sea Level PressureIn,VisibilityMPH,Wind Direction,Wind SpeedMPH,Gust SpeedMPH,PrecipitationIn,Events,Conditions,WindDirDegrees,DateUTC
12:15 AM,50.0,50.0,100,30.25,1.0,North,5.8,-,0.00,,Overcast,10,2013-12-09 05:15:00
12:35 AM,50.0,50.0,100,30.24,1.0,NNE,6.9,-,0.00,,Overcast,20,2013-12-09 05:35:00
12:55 AM,51.8,51.8,100,30.23,0.8,NNE,5.8,-,0.00,,Overcast,20,2013-12-09 05:55:00
1:15 AM,51.8,51.8,100,30.23,1.0,North,6.9,-,0.00,,Overcast,10,2013-12-09 06:15:00
1:35 AM,51.8,51.8,100,30.23,1.0,North,6.9,-,0.00,,Overcast,360,2013-12-09 06:35:00
1:55 AM,50.0,50.0,100,30.23,1.2,North,6.9,-,0.00,,Overcast,360,2013-12-09 06:55:00
2:15 AM,51.8,50.0,94,30.23,1.2,North,8.1,-,0.00,,Overcast,360,2013-12-09 07:15:00
2:35 AM,51.8,51.8,100,30.22,1.2,North,6.9,-,0.00,,Overcast,360,2013-12-09 07:35:00
2:55 AM,51.8,51.8,100,30.22,1.5,North,6.9,-,0.00,,Overcast,360,2013-12-09 07:55:00
3:15 AM,51.8,51.8,100,30.22,1.2,North,5.8,-,0.00,,Overcast,360,2013-12-09 08:15:00
3:35 AM,51.8,51.8,100,30.21,1.2,North,6.9,-,0.00,,Overcast,360,2013-12-09 08:35:00
3:55 AM,51.8,51.8,100,30.22,1.5,North,4.6,-,0.00,,Overcast,350,2013-12-09 08:55:00
4:15 AM,51.8,51.8,100,30.21,1.0,North,4.6,-,0.00,,Overcast,360,2013-12-09 09:15:00
4:35 AM,51.8,51.8,100,30.20,0.5,NNE,3.5,-,0.00,Fog,Fog,20,2013-12-09 09:35:00
4:55 AM,51.8,51.8,100,30.20,0.5,Calm,Calm,-,0.00,Fog,Fog,0,2013-12-09 09:55:00
5:35 AM,51.8,51.8,100,30.19,0.5,North,3.5,-,0.00,Fog,Fog,360,2013-12-09 10:35:00
6:50 AM,51.8,51.8,100,30.21,0.2,Calm,Calm,-,N/A,Fog,Fog,0,2013-12-09 11:50:00
7:50 AM,51.8,51.8,100,30.22,0.2,Calm,Calm,-,N/A,Fog,Fog,0,2013-12-09 12:50:00
8:50 AM,51.8,51.8,100,30.20,1.0,Calm,Calm,-,N/A,Fog,Fog,0,2013-12-09 13:50:00
9:50 AM,55.4,55.4,100,30.19,1.0,Calm,Calm,-,N/A,,Overcast,0,2013-12-09 14:50:00
10:50 AM,59.0,59.0,100,30.18,1.5,Calm,Calm,-,N/A,,Overcast,0,2013-12-09 15:50:00
11:50 AM,62.6,60.8,94,30.16,3.0,Calm,Calm,-,N/A,,Overcast,0,2013-12-09 16:50:00
12:17 PM,66.2,62.6,88,30.16,5.0,SSW,5.8,-,N/A,,Overcast,210,2013-12-09 17:17:00
12:50 PM,66.2,60.8,83,30.14,7.0,Calm,Calm,-,N/A,,Overcast,0,2013-12-09 17:50:00
1:50 PM,69.8,62.6,78,30.13,8.0,South,5.8,-,N/A,,Partly Cloudy,180,2013-12-09 18:50:00
2:50 PM,69.8,62.6,78,30.11,10.0,Calm,Calm,-,N/A,,Clear,0,2013-12-09 19:50:00
3:50 PM,64.4,60.8,88,30.11,10.0,SSE,5.8,-,N/A,,Clear,150,2013-12-09 20:50:00
4:10 PM,62.6,60.8,94,30.11,2.0,South,4.6,-,N/A,,Mostly Cloudy,170,2013-12-09 21:10:00
4:47 PM,60.8,59.0,94,30.11,2.0,South,6.9,-,N/A,,Overcast,170,2013-12-09 21:47:00
5:50 PM,60.8,60.8,100,30.12,0.8,Calm,Calm,-,N/A,,Overcast,0,2013-12-09 22:50:00
6:50 PM,62.6,60.8,94,30.12,0.5,Calm,Calm,-,N/A,Fog,Fog,0,2013-12-09 23:50:00
7:50 PM,60.8,60.8,100,30.14,1.0,Calm,Calm,-,N/A,,Overcast,0,2013-12-10 00:50:00
8:15 PM,62.6,60.8,94,30.13,0.2,Calm,Calm,-,0.00,Fog,Fog,0,2013-12-10 01:15:00
8:35 PM,62.6,62.6,100,30.13,0.2,Calm,Calm,-,0.00,Fog,Fog,0,2013-12-10 01:35:00
8:55 PM,62.6,62.6,100,30.12,0.5,Calm,Calm,-,0.00,Fog,Fog,0,2013-12-10 01:55:00
9:15 PM,62.6,62.6,100,30.12,0.5,Calm,Calm,-,0.00,Fog,Fog,0,2013-12-10 02:15:00
9:35 PM,62.6,62.6,100,30.12,0.5,ESE,3.5,-,0.00,Fog,Fog,110,2013-12-10 02:35:00
9:55 PM,62.6,62.6,100,30.12,0.5,Calm,Calm,-,0.00,Fog,Fog,0,2013-12-10 02:55:00
10:15 PM,60.8,60.8,100,30.11,0.8,SE,4.6,-,0.00,,Overcast,140,2013-12-10 03:15:00
10:35 PM,60.8,60.8,100,30.10,2.0,SE,4.6,-,0.00,,Overcast,140,2013-12-10 03:35:00
10:55 PM,62.6,62.6,100,30.10,5.0,South,4.6,-,0.00,,Partly Cloudy,170,2013-12-10 03:55:00
11:15 PM,64.4,64.4,100,30.09,5.0,South,6.9,-,0.00,,Clear,180,2013-12-10 04:15:00
11:35 PM,64.4,64.4,100,30.09,5.0,South,8.1,-,0.00,,Partly Cloudy,180,2013-12-10 04:35:00
11:55 PM,64.4,64.4,100,30.08,5.0,South,8.1,-,0.00,,Partly Cloudy,180,2013-12-10 04:55:00